CheckWX is a tool to help pilots better visualize weather data.  It is not intended as a substitute for an official pre-flight weather briefing.

14:46:20 UTC

KNFW METAR
Fort Worth NAS JRB (Carswell Field) Airport
Fort Worth, Texas, USA
Current

54 mins ago

KNFW 201352Z 13011G19KT 8SM BKN016 OVC034 26/22 A2983 RMK AO2 SLP085 T02560222 $
Observed
May-20 @ 13:52 UTC
Wind
  • 130° at 11 KTS
  • Gusting to 19 KTS
Visibility
8 SM
Flight Rules
MVFR
Cloud Levels
  • Broken at 1,600' AGL
  • Overcast at 3,400' AGL
Temperature
26°C / 79°F
Dewpoint
22°C / 72°F
Humidity
79%
Altimeter
29.83" Hg
Pressure
1010.12 hPa
Previous

2 hours ago

KNFW 201311Z 13011KT 8SM BKN015 OVC034 25/22 A2983 RMK AO2 T02500222 $
Observed
May-20 @ 13:11 UTC
Wind
  • 130° at 11 KTS
Visibility
8 SM
Flight Rules
MVFR
Cloud Levels
  • Broken at 1,500' AGL
  • Overcast at 3,400' AGL
Temperature
25°C / 77°F
Dewpoint
22°C / 72°F
Humidity
83%
Altimeter
29.83" Hg
Pressure
1010.12 hPa
Previous

2 hours ago

KNFW 201252Z 13009KT 8SM FEW018 BKN033 OVC250 24/22 A2983 RMK AO2 SLP087 T02440217 $
Observed
May-20 @ 12:52 UTC
Wind
  • 130° at 9 KTS
Visibility
8 SM
Flight Rules
VFR
Cloud Levels
  • Few at 1,800' AGL
  • Broken at 3,300' AGL
  • Overcast at 25,000' AGL
Temperature
24°C / 75°F
Dewpoint
22°C / 72°F
Humidity
89%
Altimeter
29.83" Hg
Pressure
1010.12 hPa